Погода Кариасикана неделю

Эспирито-Санто, Бразилия

16 - 22 июля
  • 16июля
    Сегодня
    +19°
    +26°
    Небольшая облачность
    ВремяПогодаТемператураВлажностьДавлениеВетер, м/сВероятность осадков
    00:00Небольшая облачность+20°C85 %767 мм1.8 м/с46 %
    03:00Облачно с прояснениями+18°C86 %767 мм2.3 м/с41 %
    06:00Облачно с прояснениями+17°C89 %767 мм2.0 м/с38 %
    09:00Облачно с прояснениями+24°C67 %768 мм1.6 м/с26 %
    12:00Облачно с прояснениями, небольшой дождь+28°C62 %767 мм3.6 м/с36 %
    15:00Небольшая облачность+27°C70 %766 мм3.6 м/с25 %
    18:00Практически безоблачно+22°C80 %767 мм2.0 м/с13 %
    21:00Практически безоблачно+21°C84 %768 мм0.9 м/с17 %
  • 17июля
    Среда
    +19°
    +27°
    Небольшая облачность
    ВремяПогодаТемператураВлажностьДавлениеВетер, м/сВероятность осадков
    00:00Практически безоблачно+19°C91 %768 мм1.5 м/с7 %
    03:00Практически безоблачно+18°C92 %767 мм1.7 м/с23 %
    06:00Практически безоблачно+17°C90 %767 мм1.5 м/с39 %
    09:00Ясно и безоблачно+24°C68 %768 мм0.2 м/с21 %
    12:00Практически безоблачно+28°C63 %766 мм2.4 м/с23 %
    15:00Небольшая облачность+27°C69 %765 мм3.1 м/с30 %
    18:00Небольшая облачность+23°C77 %765 мм1.8 м/с23 %
    21:00Практически безоблачно+21°C85 %766 мм1.0 м/с9 %
  • 18июля
    Четверг
    +20°
    +30°
    Небольшая облачность
    ВремяПогодаТемператураВлажностьДавлениеВетер, м/сВероятность осадков
    00:00Ясно и безоблачно+20°C90 %765 мм1.5 м/с5 %
    03:00Практически безоблачно+18°C91 %764 мм1.9 м/с10 %
    06:00Ясно и безоблачно+17°C91 %764 мм1.9 м/с3 %
    09:00Небольшая облачность+25°C64 %766 мм2.5 м/с5 %
    12:00Небольшая облачность+31°C45 %764 мм3.0 м/с5 %
    15:00Небольшая облачность+29°C59 %762 мм5.4 м/с6 %
    18:00Небольшая облачность+24°C82 %764 мм1.6 м/с8 %
    21:00Ясно и безоблачно+22°C87 %765 мм0.7 м/с5 %
  • 19июля
    Пятница
    +18°
    +26°
    Практически безоблачно
    ВремяПогодаТемператураВлажностьДавлениеВетер, м/сВероятность осадков
    00:00Практически безоблачно+21°C85 %766 мм2.8 м/с25 %
    03:00Ясно и безоблачно+19°C88 %766 мм3.4 м/с32 %
    06:00Ясно и безоблачно+18°C86 %766 мм3.3 м/с27 %
    09:00Практически безоблачно+24°C68 %768 мм5.0 м/с29 %
    12:00Практически безоблачно+28°C57 %767 мм6.2 м/с31 %
    15:00Практически безоблачно+26°C66 %766 мм7.6 м/с23 %
    18:00Практически безоблачно+23°C70 %767 мм5.9 м/с19 %
    21:00Практически безоблачно+22°C72 %768 мм4.0 м/с26 %
  • 20июля
    Суббота
    +19°
    +26°
    Ясно и безоблачно
    ВремяПогодаТемператураВлажностьДавлениеВетер, м/сВероятность осадков
    00:00Практически безоблачно+20°C75 %768 мм3.2 м/с27 %
    03:00Ясно и безоблачно+18°C76 %767 мм2.8 м/с26 %
    06:00Ясно и безоблачно+17°C73 %767 мм3.1 м/с24 %
    09:00Ясно и безоблачно+24°C54 %768 мм4.4 м/с26 %
    12:00Практически безоблачно+28°C46 %767 мм3.9 м/с22 %
    15:00Ясно и безоблачно+27°C50 %766 мм4.4 м/с20 %
    18:00Ясно и безоблачно+22°C67 %766 мм3.2 м/с8 %
    21:00Небольшая облачность+20°C81 %767 мм1.1 м/с11 %
Мы используем cookies
Соглашаюсь